createdAt,value
2022-11-20T00:02:39.414Z,20.07
2022-11-20T00:06:42.102Z,21.33
2022-11-20T00:10:44.711Z,27.80
2022-11-20T00:14:48.647Z,29.47
2022-11-20T00:18:51.597Z,29.30
2022-11-20T00:22:54.338Z,32.97
2022-11-20T00:26:57.135Z,38.30
2022-11-20T00:31:05.481Z,33.00
2022-11-20T00:35:08.559Z,32.07
2022-11-20T00:39:11.173Z,38.17
2022-11-20T00:43:13.781Z,37.17
2022-11-20T00:47:17.834Z,32.10
2022-11-20T00:51:24.467Z,32.70
2022-11-20T00:55:27.215Z,32.03
2022-11-20T00:59:29.948Z,29.63
2022-11-20T01:03:34.569Z,29.37
2022-11-20T01:07:37.227Z,30.83
2022-11-20T01:11:42.479Z,28.13
2022-11-20T01:15:45.062Z,26.17
2022-11-20T01:19:51.929Z,23.50
2022-11-20T01:23:55.226Z,25.60
2022-11-20T01:27:57.846Z,25.13
2022-11-20T01:32:00.566Z,25.03
2022-11-20T01:36:09.057Z,24.83
2022-11-20T01:40:13.003Z,23.30
2022-11-20T01:44:18.653Z,24.17
2022-11-20T01:48:24.799Z,22.87
2022-11-20T01:52:34.580Z,25.10
2022-11-20T01:56:40.295Z,25.43
2022-11-20T02:00:42.875Z,24.77
2022-11-20T02:04:46.196Z,23.03
2022-11-20T02:08:50.291Z,23.33
2022-11-20T02:13:10.336Z,20.30
2022-11-20T02:17:12.943Z,20.17
2022-11-20T02:21:23.424Z,22.87
2022-11-20T02:25:29.800Z,21.83
2022-11-20T02:29:38.414Z,24.10
2022-11-20T02:33:41.063Z,22.33
2022-11-20T02:37:43.724Z,23.10
2022-11-20T02:41:47.718Z,21.90
2022-11-20T02:45:50.374Z,21.87
2022-11-20T02:49:52.922Z,22.40
2022-11-20T02:53:55.513Z,22.07
2022-11-20T02:57:59.480Z,20.87
2022-11-20T03:02:02.103Z,22.10
2022-11-20T03:06:05.128Z,21.03
2022-11-20T03:10:08.858Z,22.13
2022-11-20T03:14:12.793Z,21.40
2022-11-20T03:18:15.689Z,21.73
2022-11-20T03:22:18.316Z,23.10
2022-11-20T03:26:23.588Z,23.30
2022-11-20T03:30:30.518Z,20.10
2022-11-20T03:34:33.402Z,19.40
2022-11-20T03:38:36.848Z,19.63
2022-11-20T03:42:48.746Z,20.00
2022-11-20T03:46:52.676Z,16.93
2022-11-20T03:51:07.971Z,17.70
2022-11-20T03:55:11.142Z,19.33
2022-11-20T03:59:13.953Z,18.47
2022-11-20T04:03:17.921Z,18.20
2022-11-20T04:07:20.577Z,17.37
2022-11-20T04:11:25.282Z,16.70
2022-11-20T04:15:27.883Z,16.07
2022-11-20T04:19:31.897Z,16.43
2022-11-20T04:23:34.794Z,16.60
2022-11-20T04:27:37.385Z,16.20
2022-11-20T04:31:40.023Z,14.37
2022-11-20T04:35:45.132Z,14.83
2022-11-20T04:39:47.733Z,16.33
2022-11-20T04:43:51.503Z,14.97
2022-11-20T04:47:54.811Z,14.20
2022-11-20T04:51:58.892Z,14.73
2022-11-20T04:56:02.201Z,14.97
2022-11-20T05:00:05.898Z,15.10
2022-11-20T05:04:08.939Z,15.17
2022-11-20T05:08:12.907Z,14.17
2022-11-20T05:12:15.572Z,16.57
2022-11-20T05:16:19.951Z,15.60
2022-11-20T05:20:22.755Z,15.80
2022-11-20T05:24:26.728Z,15.80
2022-11-20T05:28:30.573Z,17.97
2022-11-20T05:32:33.158Z,16.27
2022-11-20T05:36:35.837Z,16.07
2022-11-20T05:40:39.816Z,16.73
2022-11-20T05:44:42.443Z,15.40
2022-11-20T05:48:47.704Z,17.43
2022-11-20T05:52:50.318Z,15.93
2022-11-20T05:56:54.269Z,16.07
2022-11-20T06:00:57.070Z,15.83
2022-11-20T06:04:59.718Z,17.23
2022-11-20T06:09:02.335Z,16.53
2022-11-20T06:13:06.346Z,17.23
2022-11-20T06:17:09.023Z,18.77
2022-11-20T06:21:14.171Z,18.80
2022-11-20T06:25:16.827Z,16.90
2022-11-20T06:29:21.212Z,15.37
2022-11-20T06:33:24.058Z,16.47
2022-11-20T06:37:26.706Z,16.17
2022-11-20T06:41:29.835Z,16.80
2022-11-20T06:45:33.899Z,17.13
2022-11-20T06:49:38.009Z,16.77
2022-11-20T06:53:40.635Z,15.90
2022-11-20T06:57:43.324Z,16.63
2022-11-20T07:01:47.271Z,15.80
2022-11-20T07:05:49.896Z,17.07
2022-11-20T07:09:52.636Z,15.03
2022-11-20T07:13:55.235Z,16.33
2022-11-20T07:18:01.068Z,16.33
2022-11-20T07:22:03.638Z,16.50
2022-11-20T07:26:07.786Z,15.47
2022-11-20T07:30:11.190Z,16.60
2022-11-20T07:34:15.115Z,15.17
2022-11-20T07:38:17.737Z,15.53
2022-11-20T07:42:20.390Z,17.43
2022-11-20T07:46:23.635Z,17.43
2022-11-20T07:50:27.595Z,15.97
2022-11-20T07:54:30.158Z,16.47
2022-11-20T07:58:35.361Z,16.00
2022-11-20T08:02:39.814Z,16.47
2022-11-20T08:06:43.901Z,18.20
2022-11-20T08:10:46.729Z,18.33
2022-11-20T08:14:48.392Z,19.87
2022-11-20T08:18:51.243Z,19.37
2022-11-20T08:22:59.779Z,18.53
2022-11-20T08:27:02.427Z,19.07
2022-11-20T08:31:05.324Z,21.03
2022-11-20T08:35:08.516Z,20.77
2022-11-20T08:39:14.723Z,20.17
2022-11-20T08:43:17.313Z,21.07
2022-11-20T08:47:19.888Z,20.80
2022-11-20T08:51:22.598Z,20.40
2022-11-20T08:55:26.561Z,21.87
2022-11-20T09:00:03.939Z,19.37
2022-11-20T09:03:51.891Z,20.83
2022-11-20T09:07:57.627Z,20.43
2022-11-20T09:12:01.628Z,20.90
2022-11-20T09:16:06.725Z,24.43
2022-11-20T09:20:10.610Z,22.07
2022-11-20T09:24:13.397Z,22.90
2022-11-20T09:28:18.366Z,23.17
2022-11-20T09:32:21.029Z,22.87
2022-11-20T09:36:23.684Z,24.17
2022-11-20T09:40:30.303Z,24.20
2022-11-20T09:44:51.127Z,25.30
2022-11-20T09:49:16.487Z,21.77
2022-11-20T09:53:29.763Z,23.20
2022-11-20T09:57:38.114Z,25.57
2022-11-20T10:01:44.102Z,25.27
2022-11-20T10:05:50.454Z,24.20
2022-11-20T10:09:56.117Z,24.07
2022-11-20T10:14:11.045Z,23.70
2022-11-20T10:18:25.338Z,24.63
2022-11-20T10:22:41.662Z,23.33
2022-11-20T10:26:52.092Z,23.03
2022-11-20T10:31:01.503Z,23.10
2022-11-20T10:35:10.543Z,22.30
2022-11-20T10:39:22.163Z,22.83
2022-11-20T10:43:33.884Z,22.77
2022-11-20T10:47:38.383Z,21.63
2022-11-20T10:51:57.528Z,22.70
2022-11-20T10:56:05.479Z,21.07
2022-11-20T11:00:11.719Z,20.70
2022-11-20T11:04:34.590Z,20.83
2022-11-20T11:08:41.173Z,20.43
2022-11-20T11:12:47.557Z,18.57
2022-11-20T11:16:55.192Z,20.57
2022-11-20T11:20:59.167Z,21.03
2022-11-20T11:25:03.777Z,20.83
2022-11-20T11:29:06.579Z,21.17
2022-11-20T11:33:12.907Z,21.10
2022-11-20T11:37:22.369Z,20.60
2022-11-20T11:41:32.523Z,20.53
2022-11-20T11:45:35.238Z,20.17
2022-11-20T11:49:37.798Z,20.87
2022-11-20T11:53:43.123Z,21.80
2022-11-20T11:57:52.894Z,19.63
2022-11-20T12:01:59.694Z,20.13
2022-11-20T12:06:08.451Z,19.40
2022-11-20T12:10:19.728Z,22.10
2022-11-20T12:14:33.400Z,19.63
2022-11-20T12:18:36.162Z,19.40
2022-11-20T12:22:51.370Z,19.10
2022-11-20T12:27:05.351Z,17.40
2022-11-20T12:31:41.316Z,16.77
2022-11-20T12:36:03.938Z,16.00
2022-11-20T12:40:25.954Z,14.67
2022-11-20T12:45:04.065Z,15.70
2022-11-20T12:49:23.766Z,15.30
2022-11-20T12:53:35.316Z,14.63
2022-11-20T12:57:48.429Z,16.27
2022-11-20T13:01:55.820Z,15.17
2022-11-20T13:06:13.160Z,17.07
2022-11-20T13:10:28.143Z,16.77
2022-11-20T13:14:38.559Z,15.47
2022-11-20T13:18:43.652Z,16.63
2022-11-20T13:22:49.157Z,16.67
2022-11-20T13:27:02.924Z,15.77
2022-11-20T13:31:05.634Z,16.07
2022-11-20T13:35:11.019Z,16.10
2022-11-20T13:39:26.412Z,17.10
2022-11-20T13:43:37.012Z,15.80
2022-11-20T13:47:39.719Z,15.87
2022-11-20T13:51:46.287Z,15.93
2022-11-20T13:55:57.191Z,16.10
2022-11-20T14:00:07.601Z,17.30
2022-11-20T14:04:20.103Z,17.23
2022-11-20T14:08:29.721Z,17.97
2022-11-20T14:12:35.609Z,18.30
2022-11-20T14:16:38.725Z,18.07
2022-11-20T14:20:42.452Z,17.83
2022-11-20T14:24:45.291Z,19.53
2022-11-20T14:28:52.361Z,18.77
2022-11-20T14:32:58.144Z,18.93
2022-11-20T14:37:02.084Z,19.67
2022-11-20T14:41:09.045Z,20.87
2022-11-20T14:45:14.751Z,20.47
2022-11-20T14:49:17.474Z,20.30
2022-11-20T14:53:24.969Z,19.93
2022-11-20T14:57:29.115Z,19.60
2022-11-20T15:01:34.689Z,20.73
2022-11-20T15:05:50.095Z,20.33
2022-11-20T15:10:02.084Z,19.67
2022-11-20T15:14:07.754Z,23.23
2022-11-20T15:18:15.122Z,21.00
2022-11-20T15:22:18.075Z,21.70
2022-11-20T15:26:25.448Z,22.57
2022-11-20T15:30:28.108Z,22.87
2022-11-20T15:34:32.065Z,21.60
2022-11-20T15:38:34.691Z,24.47
2022-11-20T15:42:37.645Z,24.13
2022-11-20T15:46:45.339Z,23.73
2022-11-20T15:50:54.448Z,25.13
2022-11-20T15:54:57.031Z,24.93
2022-11-20T15:59:00.697Z,22.50
2022-11-20T16:03:03.393Z,21.80
2022-11-20T16:07:07.599Z,23.73
2022-11-20T16:11:12.787Z,23.40
2022-11-20T16:15:33.301Z,23.57
2022-11-20T16:19:35.980Z,22.97
2022-11-20T16:23:39.919Z,24.53
2022-11-20T16:27:42.507Z,22.90
2022-11-20T16:31:45.130Z,23.30
2022-11-20T16:35:47.759Z,24.07
2022-11-20T16:39:51.759Z,24.90
2022-11-20T16:43:57.955Z,24.50
2022-11-20T16:48:00.533Z,25.50
2022-11-20T16:52:03.096Z,24.33
2022-11-20T16:56:15.963Z,26.67
2022-11-20T17:00:18.762Z,24.70
2022-11-20T17:04:21.824Z,27.70
2022-11-20T17:08:24.720Z,23.77
2022-11-20T17:12:28.662Z,24.53
2022-11-20T17:16:32.205Z,26.43
2022-11-20T17:20:34.884Z,27.90
2022-11-20T17:24:37.496Z,28.43
2022-11-20T17:28:42.384Z,27.43
2022-11-20T17:32:46.939Z,28.57
2022-11-20T17:36:49.530Z,27.50
2022-11-20T17:40:52.182Z,27.80
2022-11-20T17:44:56.496Z,26.23
2022-11-20T17:48:59.456Z,28.67
2022-11-20T17:53:02.085Z,29.50
2022-11-20T17:57:22.499Z,30.90
2022-11-20T18:01:26.561Z,34.97
2022-11-20T18:05:29.259Z,33.90
2022-11-20T18:09:31.818Z,32.50
2022-11-20T18:13:48.363Z,33.07
2022-11-20T18:17:52.293Z,31.40
2022-11-20T18:21:55.990Z,35.63
2022-11-20T18:26:01.212Z,36.03
2022-11-20T18:30:03.868Z,32.47
2022-11-20T18:34:11.504Z,33.63
2022-11-20T18:38:14.127Z,36.33
2022-11-20T18:42:35.320Z,31.10
2022-11-20T18:46:37.905Z,33.50
2022-11-20T18:50:41.891Z,27.67
2022-11-20T18:54:44.475Z,30.10
2022-11-20T18:58:47.116Z,27.80
2022-11-20T19:02:49.686Z,25.87
2022-11-20T19:06:56.154Z,25.20
2022-11-20T19:11:06.801Z,22.97
2022-11-20T19:15:09.874Z,21.47
2022-11-20T19:19:12.621Z,21.63
2022-11-20T19:23:18.657Z,21.40
2022-11-20T19:27:21.438Z,25.57
2022-11-20T19:31:26.805Z,21.27
2022-11-20T19:35:29.395Z,23.40
2022-11-20T19:39:35.397Z,24.53
2022-11-20T19:43:38.308Z,22.60
2022-11-20T19:52:03.485Z,25.57
2022-11-20T19:56:08.377Z,25.93
2022-11-20T20:00:16.802Z,25.03
2022-11-20T20:04:22.713Z,24.83
2022-11-20T20:08:25.292Z,23.37
2022-11-20T20:12:29.239Z,24.20
2022-11-20T20:16:32.185Z,25.23
2022-11-20T20:20:34.831Z,23.50
2022-11-20T20:24:37.492Z,25.27
2022-11-20T20:28:41.773Z,23.17
2022-11-20T20:32:44.394Z,23.73
2022-11-20T20:36:46.970Z,24.77
2022-11-20T20:40:50.374Z,22.53
2022-11-20T20:45:08.273Z,27.30
2022-11-20T20:49:11.144Z,21.00
2022-11-20T20:53:13.764Z,23.50
2022-11-20T20:57:16.373Z,23.77
2022-11-20T21:01:22.602Z,24.33
2022-11-20T21:05:25.319Z,23.43
2022-11-20T21:09:27.941Z,23.03
2022-11-20T21:13:31.007Z,28.73
2022-11-20T21:17:34.939Z,27.53
2022-11-20T21:21:55.295Z,29.93
2022-11-20T21:25:58.160Z,25.67
2022-11-20T21:30:00.762Z,28.07
2022-11-20T21:34:04.746Z,24.40
2022-11-20T21:38:07.412Z,25.47
2022-11-20T21:42:10.059Z,26.63
2022-11-20T21:46:14.669Z,26.00
2022-11-20T21:50:19.060Z,24.00
2022-11-20T21:54:21.935Z,25.40
2022-11-20T21:58:24.908Z,22.97
2022-11-20T22:02:27.510Z,26.57
2022-11-20T22:06:35.250Z,24.43
2022-11-20T22:10:37.821Z,27.10
2022-11-20T22:14:40.408Z,27.73
2022-11-20T22:18:44.849Z,33.23
2022-11-20T22:22:49.106Z,27.27
2022-11-20T22:26:51.961Z,25.90
2022-11-20T22:30:58.895Z,25.17
2022-11-20T22:35:02.262Z,22.00
2022-11-20T22:39:06.973Z,23.33
2022-11-20T22:43:09.569Z,23.13
2022-11-20T22:47:12.140Z,24.97
2022-11-20T22:51:16.699Z,24.50
2022-11-20T22:55:20.602Z,23.83
2022-11-20T22:59:23.201Z,24.50
2022-11-20T23:03:25.902Z,21.03
2022-11-20T23:07:28.663Z,25.90
2022-11-20T23:11:33.759Z,25.90
2022-11-20T23:15:36.480Z,27.63
2022-11-20T23:19:39.046Z,28.13
2022-11-20T23:23:42.066Z,26.50
2022-11-20T23:27:45.961Z,25.53
2022-11-20T23:31:48.552Z,23.10
2022-11-20T23:35:51.560Z,23.10
2022-11-20T23:39:54.214Z,23.30
2022-11-20T23:43:58.152Z,23.37
2022-11-20T23:48:00.726Z,25.20
2022-11-20T23:52:03.415Z,28.73
2022-11-20T23:56:06.849Z,26.33
